sensor_id;sensor_type;location;lat;lon;timestamp;P1;durP1;ratioP1;P2;durP2;ratioP2
66587;SDS011;53446;50.076;8.198;2023-04-29T00:01:59;5.00;;;1.97;;
66587;SDS011;53446;50.076;8.198;2023-04-29T00:04:00;4.10;;;1.70;;
66587;SDS011;53446;50.076;8.198;2023-04-29T00:06:00;4.37;;;1.70;;
66587;SDS011;53446;50.076;8.198;2023-04-29T00:08:01;4.00;;;1.70;;
66587;SDS011;53446;50.076;8.198;2023-04-29T00:10:01;4.17;;;1.50;;
66587;SDS011;53446;50.076;8.198;2023-04-29T00:12:02;3.95;;;1.63;;
66587;SDS011;53446;50.076;8.198;2023-04-29T00:14:02;4.20;;;1.90;;
66587;SDS011;53446;50.076;8.198;2023-04-29T00:16:02;5.53;;;1.70;;
66587;SDS011;53446;50.076;8.198;2023-04-29T00:18:04;4.32;;;2.00;;
66587;SDS011;53446;50.076;8.198;2023-04-29T00:20:05;4.07;;;1.90;;
66587;SDS011;53446;50.076;8.198;2023-04-29T00:22:06;4.00;;;1.90;;
66587;SDS011;53446;50.076;8.198;2023-04-29T00:24:06;3.80;;;1.70;;
66587;SDS011;53446;50.076;8.198;2023-04-29T00:26:07;4.60;;;1.70;;
66587;SDS011;53446;50.076;8.198;2023-04-29T00:28:07;5.13;;;1.70;;
66587;SDS011;53446;50.076;8.198;2023-04-29T00:30:07;4.60;;;1.70;;
66587;SDS011;53446;50.076;8.198;2023-04-29T00:32:08;4.27;;;1.83;;
66587;SDS011;53446;50.076;8.198;2023-04-29T00:34:08;3.95;;;1.90;;
66587;SDS011;53446;50.076;8.198;2023-04-29T00:36:08;3.92;;;1.70;;
66587;SDS011;53446;50.076;8.198;2023-04-29T00:38:09;4.83;;;2.00;;
66587;SDS011;53446;50.076;8.198;2023-04-29T00:40:09;5.00;;;1.70;;
66587;SDS011;53446;50.076;8.198;2023-04-29T00:42:11;5.55;;;1.80;;
66587;SDS011;53446;50.076;8.198;2023-04-29T00:44:12;4.50;;;1.80;;
66587;SDS011;53446;50.076;8.198;2023-04-29T00:46:12;6.10;;;2.00;;
66587;SDS011;53446;50.076;8.198;2023-04-29T00:48:12;4.40;;;2.00;;
66587;SDS011;53446;50.076;8.198;2023-04-29T00:50:14;5.05;;;1.83;;
66587;SDS011;53446;50.076;8.198;2023-04-29T00:52:15;4.20;;;1.93;;
66587;SDS011;53446;50.076;8.198;2023-04-29T00:54:16;4.57;;;2.15;;
66587;SDS011;53446;50.076;8.198;2023-04-29T00:56:17;4.65;;;1.92;;
66587;SDS011;53446;50.076;8.198;2023-04-29T00:58:19;4.97;;;1.90;;
66587;SDS011;53446;50.076;8.198;2023-04-29T01:00:21;5.57;;;2.22;;
66587;SDS011;53446;50.076;8.198;2023-04-29T01:02:21;5.30;;;2.30;;
66587;SDS011;53446;50.076;8.198;2023-04-29T01:04:22;4.83;;;1.70;;
66587;SDS011;53446;50.076;8.198;2023-04-29T01:06:26;4.17;;;2.10;;
66587;SDS011;53446;50.076;8.198;2023-04-29T01:10:54;5.28;;;1.85;;
66587;SDS011;53446;50.076;8.198;2023-04-29T01:13:25;4.20;;;1.95;;
66587;SDS011;53446;50.076;8.198;2023-04-29T01:15:34;4.30;;;1.70;;
66587;SDS011;53446;50.076;8.198;2023-04-29T01:17:43;7.40;;;2.70;;
66587;SDS011;53446;50.076;8.198;2023-04-29T01:19:55;6.15;;;2.22;;
66587;SDS011;53446;50.076;8.198;2023-04-29T01:21:57;5.35;;;1.90;;
66587;SDS011;53446;50.076;8.198;2023-04-29T01:23:58;5.23;;;2.20;;
66587;SDS011;53446;50.076;8.198;2023-04-29T01:25:58;5.47;;;2.27;;
66587;SDS011;53446;50.076;8.198;2023-04-29T01:30:49;5.00;;;2.88;;
66587;SDS011;53446;50.076;8.198;2023-04-29T01:33:09;4.10;;;1.98;;
66587;SDS011;53446;50.076;8.198;2023-04-29T01:35:25;5.80;;;2.30;;
66587;SDS011;53446;50.076;8.198;2023-04-29T01:37:40;4.10;;;2.15;;
66587;SDS011;53446;50.076;8.198;2023-04-29T01:42:14;5.30;;;1.92;;
66587;SDS011;53446;50.076;8.198;2023-04-29T01:44:17;5.50;;;2.60;;
66587;SDS011;53446;50.076;8.198;2023-04-29T01:46:19;5.43;;;2.53;;
66587;SDS011;53446;50.076;8.198;2023-04-29T01:48:20;5.00;;;2.17;;
66587;SDS011;53446;50.076;8.198;2023-04-29T01:50:20;4.90;;;2.20;;
66587;SDS011;53446;50.076;8.198;2023-04-29T01:52:21;5.80;;;2.60;;
66587;SDS011;53446;50.076;8.198;2023-04-29T01:54:22;4.68;;;2.40;;
66587;SDS011;53446;50.076;8.198;2023-04-29T01:56:22;4.60;;;2.30;;
66587;SDS011;53446;50.076;8.198;2023-04-29T01:58:22;5.40;;;2.50;;
66587;SDS011;53446;50.076;8.198;2023-04-29T02:00:23;6.70;;;2.50;;
66587;SDS011;53446;50.076;8.198;2023-04-29T02:02:23;5.30;;;2.30;;
66587;SDS011;53446;50.076;8.198;2023-04-29T02:04:24;4.97;;;2.53;;
66587;SDS011;53446;50.076;8.198;2023-04-29T02:06:25;8.32;;;2.88;;
66587;SDS011;53446;50.076;8.198;2023-04-29T02:08:25;6.33;;;2.70;;
66587;SDS011;53446;50.076;8.198;2023-04-29T02:10:26;6.07;;;2.70;;
66587;SDS011;53446;50.076;8.198;2023-04-29T02:12:26;5.13;;;2.60;;
66587;SDS011;53446;50.076;8.198;2023-04-29T02:14:27;4.90;;;2.40;;
66587;SDS011;53446;50.076;8.198;2023-04-29T02:16:27;4.25;;;2.33;;
66587;SDS011;53446;50.076;8.198;2023-04-29T02:18:27;4.80;;;2.70;;
66587;SDS011;53446;50.076;8.198;2023-04-29T02:20:28;6.30;;;2.33;;
66587;SDS011;53446;50.076;8.198;2023-04-29T02:22:28;4.80;;;2.50;;
66587;SDS011;53446;50.076;8.198;2023-04-29T02:24:28;6.33;;;2.97;;
66587;SDS011;53446;50.076;8.198;2023-04-29T02:26:29;5.73;;;2.80;;
66587;SDS011;53446;50.076;8.198;2023-04-29T02:28:29;5.50;;;2.97;;
66587;SDS011;53446;50.076;8.198;2023-04-29T02:30:30;5.30;;;2.80;;
66587;SDS011;53446;50.076;8.198;2023-04-29T02:32:30;5.30;;;2.90;;
66587;SDS011;53446;50.076;8.198;2023-04-29T02:34:30;5.00;;;2.67;;
66587;SDS011;53446;50.076;8.198;2023-04-29T02:36:31;6.00;;;3.03;;
66587;SDS011;53446;50.076;8.198;2023-04-29T02:38:31;6.93;;;3.07;;
66587;SDS011;53446;50.076;8.198;2023-04-29T02:40:31;5.63;;;3.00;;
66587;SDS011;53446;50.076;8.198;2023-04-29T02:42:32;6.43;;;3.30;;
66587;SDS011;53446;50.076;8.198;2023-04-29T02:44:32;5.80;;;3.43;;
66587;SDS011;53446;50.076;8.198;2023-04-29T02:46:32;6.17;;;3.20;;
66587;SDS011;53446;50.076;8.198;2023-04-29T02:48:34;6.43;;;2.97;;
66587;SDS011;53446;50.076;8.198;2023-04-29T02:50:35;5.27;;;3.07;;
66587;SDS011;53446;50.076;8.198;2023-04-29T02:52:35;6.00;;;3.57;;
66587;SDS011;53446;50.076;8.198;2023-04-29T02:54:36;6.10;;;3.60;;
66587;SDS011;53446;50.076;8.198;2023-04-29T02:56:36;7.85;;;4.80;;
66587;SDS011;53446;50.076;8.198;2023-04-29T02:58:37;9.43;;;5.10;;
66587;SDS011;53446;50.076;8.198;2023-04-29T03:00:39;9.23;;;5.33;;
66587;SDS011;53446;50.076;8.198;2023-04-29T03:02:40;10.30;;;5.53;;
66587;SDS011;53446;50.076;8.198;2023-04-29T03:04:40;10.20;;;6.00;;
66587;SDS011;53446;50.076;8.198;2023-04-29T03:06:41;11.57;;;6.00;;
66587;SDS011;53446;50.076;8.198;2023-04-29T03:08:42;9.55;;;5.70;;
66587;SDS011;53446;50.076;8.198;2023-04-29T03:10:42;8.73;;;5.70;;
66587;SDS011;53446;50.076;8.198;2023-04-29T03:12:43;9.97;;;5.83;;
66587;SDS011;53446;50.076;8.198;2023-04-29T03:14:43;11.23;;;6.70;;
66587;SDS011;53446;50.076;8.198;2023-04-29T03:16:44;10.38;;;5.90;;
66587;SDS011;53446;50.076;8.198;2023-04-29T03:18:44;9.95;;;6.35;;
66587;SDS011;53446;50.076;8.198;2023-04-29T03:20:45;10.63;;;6.90;;
66587;SDS011;53446;50.076;8.198;2023-04-29T03:22:45;10.87;;;6.67;;
66587;SDS011;53446;50.076;8.198;2023-04-29T03:24:45;12.20;;;7.30;;
66587;SDS011;53446;50.076;8.198;2023-04-29T03:26:46;13.63;;;8.02;;
66587;SDS011;53446;50.076;8.198;2023-04-29T03:28:46;13.70;;;8.18;;
66587;SDS011;53446;50.076;8.198;2023-04-29T03:30:47;14.07;;;8.00;;
66587;SDS011;53446;50.076;8.198;2023-04-29T03:32:47;11.57;;;7.23;;
66587;SDS011;53446;50.076;8.198;2023-04-29T03:34:47;13.73;;;8.63;;
66587;SDS011;53446;50.076;8.198;2023-04-29T03:36:48;14.30;;;8.45;;
66587;SDS011;53446;50.076;8.198;2023-04-29T03:38:48;13.97;;;8.33;;
66587;SDS011;53446;50.076;8.198;2023-04-29T03:40:49;14.47;;;8.47;;
66587;SDS011;53446;50.076;8.198;2023-04-29T03:42:49;16.63;;;8.40;;
66587;SDS011;53446;50.076;8.198;2023-04-29T03:44:49;16.75;;;8.57;;
66587;SDS011;53446;50.076;8.198;2023-04-29T03:46:50;14.75;;;9.18;;
66587;SDS011;53446;50.076;8.198;2023-04-29T03:48:50;15.23;;;8.87;;
66587;SDS011;53446;50.076;8.198;2023-04-29T03:50:51;15.90;;;10.20;;
66587;SDS011;53446;50.076;8.198;2023-04-29T03:52:51;15.50;;;9.07;;
66587;SDS011;53446;50.076;8.198;2023-04-29T03:54:52;15.40;;;9.40;;
66587;SDS011;53446;50.076;8.198;2023-04-29T03:56:52;15.60;;;8.83;;
66587;SDS011;53446;50.076;8.198;2023-04-29T03:58:52;15.23;;;9.57;;
66587;SDS011;53446;50.076;8.198;2023-04-29T04:00:53;16.67;;;9.68;;
66587;SDS011;53446;50.076;8.198;2023-04-29T04:02:54;17.00;;;9.23;;
66587;SDS011;53446;50.076;8.198;2023-04-29T04:04:54;17.30;;;10.03;;
66587;SDS011;53446;50.076;8.198;2023-04-29T04:06:54;17.65;;;9.68;;
66587;SDS011;53446;50.076;8.198;2023-04-29T04:08:55;15.90;;;9.60;;
66587;SDS011;53446;50.076;8.198;2023-04-29T04:10:55;14.90;;;9.00;;
66587;SDS011;53446;50.076;8.198;2023-04-29T04:13:01;17.05;;;9.75;;
66587;SDS011;53446;50.076;8.198;2023-04-29T04:15:02;17.52;;;10.00;;
66587;SDS011;53446;50.076;8.198;2023-04-29T04:17:03;17.87;;;9.80;;
66587;SDS011;53446;50.076;8.198;2023-04-29T04:19:03;15.85;;;9.52;;
66587;SDS011;53446;50.076;8.198;2023-04-29T04:21:04;16.92;;;9.75;;
66587;SDS011;53446;50.076;8.198;2023-04-29T04:23:05;16.60;;;9.90;;
66587;SDS011;53446;50.076;8.198;2023-04-29T04:25:06;18.98;;;9.90;;
66587;SDS011;53446;50.076;8.198;2023-04-29T04:27:07;18.00;;;10.27;;
66587;SDS011;53446;50.076;8.198;2023-04-29T04:29:07;15.53;;;9.70;;
66587;SDS011;53446;50.076;8.198;2023-04-29T04:31:07;16.30;;;9.65;;
66587;SDS011;53446;50.076;8.198;2023-04-29T04:33:08;18.25;;;10.43;;
66587;SDS011;53446;50.076;8.198;2023-04-29T04:35:09;19.00;;;10.43;;
66587;SDS011;53446;50.076;8.198;2023-04-29T04:37:09;19.63;;;9.88;;
66587;SDS011;53446;50.076;8.198;2023-04-29T04:39:11;17.35;;;10.10;;
66587;SDS011;53446;50.076;8.198;2023-04-29T04:41:11;18.00;;;10.03;;
66587;SDS011;53446;50.076;8.198;2023-04-29T04:43:11;17.67;;;10.23;;
66587;SDS011;53446;50.076;8.198;2023-04-29T04:45:11;20.15;;;10.98;;
66587;SDS011;53446;50.076;8.198;2023-04-29T04:47:12;17.73;;;9.80;;
66587;SDS011;53446;50.076;8.198;2023-04-29T04:49:12;17.50;;;10.57;;
66587;SDS011;53446;50.076;8.198;2023-04-29T04:51:12;18.37;;;10.07;;
66587;SDS011;53446;50.076;8.198;2023-04-29T04:53:13;16.27;;;9.43;;
66587;SDS011;53446;50.076;8.198;2023-04-29T04:55:13;19.53;;;10.43;;
66587;SDS011;53446;50.076;8.198;2023-04-29T04:57:13;19.27;;;10.47;;
66587;SDS011;53446;50.076;8.198;2023-04-29T04:59:14;20.40;;;10.52;;
66587;SDS011;53446;50.076;8.198;2023-04-29T05:01:14;18.70;;;10.00;;
66587;SDS011;53446;50.076;8.198;2023-04-29T05:03:14;17.13;;;9.43;;
66587;SDS011;53446;50.076;8.198;2023-04-29T05:05:15;16.58;;;9.27;;
66587;SDS011;53446;50.076;8.198;2023-04-29T05:07:16;17.27;;;9.23;;
66587;SDS011;53446;50.076;8.198;2023-04-29T05:09:16;15.87;;;9.40;;
66587;SDS011;53446;50.076;8.198;2023-04-29T05:11:17;17.90;;;9.03;;
66587;SDS011;53446;50.076;8.198;2023-04-29T05:13:18;16.42;;;9.00;;
66587;SDS011;53446;50.076;8.198;2023-04-29T05:15:18;16.90;;;9.20;;
66587;SDS011;53446;50.076;8.198;2023-04-29T05:17:18;15.47;;;9.03;;
66587;SDS011;53446;50.076;8.198;2023-04-29T05:19:19;17.13;;;9.37;;
66587;SDS011;53446;50.076;8.198;2023-04-29T05:21:19;14.03;;;7.90;;
66587;SDS011;53446;50.076;8.198;2023-04-29T05:23:19;15.35;;;9.10;;
66587;SDS011;53446;50.076;8.198;2023-04-29T05:25:20;14.23;;;8.30;;
66587;SDS011;53446;50.076;8.198;2023-04-29T05:27:20;15.57;;;8.13;;
66587;SDS011;53446;50.076;8.198;2023-04-29T05:29:20;15.30;;;8.13;;
66587;SDS011;53446;50.076;8.198;2023-04-29T05:31:21;15.33;;;8.00;;
66587;SDS011;53446;50.076;8.198;2023-04-29T05:33:21;15.07;;;8.43;;
66587;SDS011;53446;50.076;8.198;2023-04-29T05:35:21;14.82;;;7.63;;
66587;SDS011;53446;50.076;8.198;2023-04-29T05:37:22;12.63;;;6.85;;
66587;SDS011;53446;50.076;8.198;2023-04-29T05:39:22;12.97;;;6.63;;
66587;SDS011;53446;50.076;8.198;2023-04-29T05:41:22;13.13;;;6.83;;
66587;SDS011;53446;50.076;8.198;2023-04-29T05:43:23;12.88;;;7.20;;
66587;SDS011;53446;50.076;8.198;2023-04-29T05:45:24;13.00;;;6.83;;
66587;SDS011;53446;50.076;8.198;2023-04-29T05:47:24;13.97;;;6.73;;
66587;SDS011;53446;50.076;8.198;2023-04-29T05:49:25;11.77;;;6.40;;
66587;SDS011;53446;50.076;8.198;2023-04-29T05:51:25;13.57;;;6.40;;
66587;SDS011;53446;50.076;8.198;2023-04-29T05:53:27;13.18;;;6.82;;
66587;SDS011;53446;50.076;8.198;2023-04-29T05:55:27;11.37;;;5.97;;
66587;SDS011;53446;50.076;8.198;2023-04-29T05:57:27;10.67;;;5.93;;
66587;SDS011;53446;50.076;8.198;2023-04-29T05:59:28;10.33;;;5.70;;
66587;SDS011;53446;50.076;8.198;2023-04-29T06:01:30;10.20;;;5.22;;
66587;SDS011;53446;50.076;8.198;2023-04-29T06:03:30;11.10;;;5.37;;
66587;SDS011;53446;50.076;8.198;2023-04-29T06:05:30;9.80;;;5.00;;
66587;SDS011;53446;50.076;8.198;2023-04-29T06:07:31;9.20;;;4.80;;
66587;SDS011;53446;50.076;8.198;2023-04-29T06:09:31;10.83;;;5.00;;
66587;SDS011;53446;50.076;8.198;2023-04-29T06:11:32;11.80;;;6.13;;
66587;SDS011;53446;50.076;8.198;2023-04-29T06:13:32;10.27;;;4.85;;
66587;SDS011;53446;50.076;8.198;2023-04-29T06:15:33;8.60;;;5.30;;
66587;SDS011;53446;50.076;8.198;2023-04-29T06:17:33;10.93;;;5.80;;
66587;SDS011;53446;50.076;8.198;2023-04-29T06:19:33;12.33;;;6.33;;
66587;SDS011;53446;50.076;8.198;2023-04-29T06:21:34;9.43;;;5.03;;
66587;SDS011;53446;50.076;8.198;2023-04-29T06:23:34;9.40;;;4.90;;
66587;SDS011;53446;50.076;8.198;2023-04-29T06:25:35;9.43;;;4.77;;
66587;SDS011;53446;50.076;8.198;2023-04-29T06:27:35;10.97;;;5.27;;
66587;SDS011;53446;50.076;8.198;2023-04-29T06:29:35;11.02;;;4.93;;
66587;SDS011;53446;50.076;8.198;2023-04-29T06:31:36;11.02;;;5.30;;
66587;SDS011;53446;50.076;8.198;2023-04-29T06:33:37;9.00;;;4.37;;
66587;SDS011;53446;50.076;8.198;2023-04-29T06:35:40;10.52;;;4.78;;
66587;SDS011;53446;50.076;8.198;2023-04-29T06:37:40;9.35;;;4.70;;
66587;SDS011;53446;50.076;8.198;2023-04-29T06:39:41;12.93;;;5.37;;
66587;SDS011;53446;50.076;8.198;2023-04-29T06:41:41;10.30;;;4.88;;
66587;SDS011;53446;50.076;8.198;2023-04-29T06:43:41;9.52;;;5.13;;
66587;SDS011;53446;50.076;8.198;2023-04-29T06:45:44;9.97;;;4.70;;
66587;SDS011;53446;50.076;8.198;2023-04-29T06:47:45;9.75;;;5.32;;
66587;SDS011;53446;50.076;8.198;2023-04-29T06:49:46;8.73;;;4.90;;
66587;SDS011;53446;50.076;8.198;2023-04-29T06:51:46;9.67;;;5.27;;
66587;SDS011;53446;50.076;8.198;2023-04-29T06:53:46;11.47;;;6.00;;
66587;SDS011;53446;50.076;8.198;2023-04-29T06:55:47;11.27;;;5.60;;
66587;SDS011;53446;50.076;8.198;2023-04-29T06:57:47;9.50;;;5.27;;
66587;SDS011;53446;50.076;8.198;2023-04-29T06:59:47;10.07;;;5.15;;
66587;SDS011;53446;50.076;8.198;2023-04-29T07:01:48;11.25;;;5.97;;
66587;SDS011;53446;50.076;8.198;2023-04-29T07:03:48;10.40;;;5.20;;
66587;SDS011;53446;50.076;8.198;2023-04-29T07:05:48;11.17;;;5.60;;
66587;SDS011;53446;50.076;8.198;2023-04-29T07:07:49;12.40;;;5.93;;
66587;SDS011;53446;50.076;8.198;2023-04-29T07:09:49;11.20;;;5.40;;
66587;SDS011;53446;50.076;8.198;2023-04-29T07:11:51;11.52;;;6.50;;
66587;SDS011;53446;50.076;8.198;2023-04-29T07:13:51;9.70;;;5.37;;
66587;SDS011;53446;50.076;8.198;2023-04-29T07:15:52;10.43;;;5.97;;
66587;SDS011;53446;50.076;8.198;2023-04-29T07:17:52;10.77;;;5.40;;
66587;SDS011;53446;50.076;8.198;2023-04-29T07:19:53;9.40;;;5.37;;
66587;SDS011;53446;50.076;8.198;2023-04-29T07:21:53;8.37;;;4.53;;
66587;SDS011;53446;50.076;8.198;2023-04-29T07:23:53;9.70;;;5.37;;
66587;SDS011;53446;50.076;8.198;2023-04-29T07:25:54;10.32;;;5.47;;
66587;SDS011;53446;50.076;8.198;2023-04-29T07:27:54;10.93;;;6.03;;
66587;SDS011;53446;50.076;8.198;2023-04-29T07:29:55;10.60;;;5.30;;
66587;SDS011;53446;50.076;8.198;2023-04-29T07:31:56;9.50;;;4.85;;
66587;SDS011;53446;50.076;8.198;2023-04-29T07:33:57;9.87;;;5.60;;
66587;SDS011;53446;50.076;8.198;2023-04-29T07:35:57;11.32;;;6.18;;
66587;SDS011;53446;50.076;8.198;2023-04-29T07:37:57;9.30;;;5.17;;
66587;SDS011;53446;50.076;8.198;2023-04-29T07:39:58;10.10;;;5.23;;
66587;SDS011;53446;50.076;8.198;2023-04-29T07:41:58;10.07;;;5.43;;
66587;SDS011;53446;50.076;8.198;2023-04-29T07:43:59;9.32;;;4.78;;
66587;SDS011;53446;50.076;8.198;2023-04-29T07:45:59;10.10;;;4.83;;
66587;SDS011;53446;50.076;8.198;2023-04-29T07:47:59;9.40;;;5.10;;
66587;SDS011;53446;50.076;8.198;2023-04-29T07:50:00;9.57;;;5.27;;
66587;SDS011;53446;50.076;8.198;2023-04-29T07:52:00;9.67;;;5.50;;
66587;SDS011;53446;50.076;8.198;2023-04-29T07:54:01;10.40;;;5.07;;
66587;SDS011;53446;50.076;8.198;2023-04-29T07:56:05;16.10;;;7.80;;
66587;SDS011;53446;50.076;8.198;2023-04-29T07:58:06;12.02;;;5.82;;
66587;SDS011;53446;50.076;8.198;2023-04-29T08:00:07;12.07;;;5.93;;
66587;SDS011;53446;50.076;8.198;2023-04-29T08:02:08;14.27;;;6.85;;
66587;SDS011;53446;50.076;8.198;2023-04-29T08:04:09;11.13;;;5.70;;
66587;SDS011;53446;50.076;8.198;2023-04-29T08:06:09;10.20;;;5.27;;
66587;SDS011;53446;50.076;8.198;2023-04-29T08:08:09;33.90;;;15.33;;
66587;SDS011;53446;50.076;8.198;2023-04-29T08:10:10;13.30;;;6.87;;
66587;SDS011;53446;50.076;8.198;2023-04-29T08:12:10;10.55;;;5.30;;
66587;SDS011;53446;50.076;8.198;2023-04-29T08:14:11;8.60;;;4.50;;
66587;SDS011;53446;50.076;8.198;2023-04-29T08:16:11;8.70;;;4.47;;
66587;SDS011;53446;50.076;8.198;2023-04-29T08:18:12;10.00;;;4.93;;
66587;SDS011;53446;50.076;8.198;2023-04-29T08:20:12;9.17;;;4.57;;
66587;SDS011;53446;50.076;8.198;2023-04-29T08:22:14;8.38;;;4.57;;
66587;SDS011;53446;50.076;8.198;2023-04-29T08:24:14;8.90;;;4.50;;
66587;SDS011;53446;50.076;8.198;2023-04-29T08:26:14;6.90;;;4.03;;
66587;SDS011;53446;50.076;8.198;2023-04-29T08:28:15;8.63;;;4.65;;
66587;SDS011;53446;50.076;8.198;2023-04-29T08:30:16;9.07;;;4.93;;
66587;SDS011;53446;50.076;8.198;2023-04-29T08:32:16;9.63;;;4.80;;
66587;SDS011;53446;50.076;8.198;2023-04-29T08:34:17;9.50;;;5.03;;
66587;SDS011;53446;50.076;8.198;2023-04-29T08:36:17;9.93;;;5.10;;
66587;SDS011;53446;50.076;8.198;2023-04-29T08:38:17;10.43;;;5.20;;
66587;SDS011;53446;50.076;8.198;2023-04-29T08:40:17;9.70;;;4.80;;
66587;SDS011;53446;50.076;8.198;2023-04-29T08:42:19;8.17;;;4.70;;
66587;SDS011;53446;50.076;8.198;2023-04-29T08:44:35;7.85;;;4.40;;
66587;SDS011;53446;50.076;8.198;2023-04-29T08:46:35;8.20;;;3.87;;
66587;SDS011;53446;50.076;8.198;2023-04-29T08:48:36;9.02;;;4.50;;
66587;SDS011;53446;50.076;8.198;2023-04-29T08:50:39;9.30;;;4.15;;
66587;SDS011;53446;50.076;8.198;2023-04-29T08:52:40;25.73;;;11.90;;
66587;SDS011;53446;50.076;8.198;2023-04-29T08:54:40;10.67;;;5.00;;
66587;SDS011;53446;50.076;8.198;2023-04-29T08:56:41;9.50;;;4.80;;
66587;SDS011;53446;50.076;8.198;2023-04-29T08:58:44;9.30;;;4.57;;
66587;SDS011;53446;50.076;8.198;2023-04-29T09:00:45;8.88;;;4.10;;
66587;SDS011;53446;50.076;8.198;2023-04-29T09:02:49;9.27;;;4.03;;
66587;SDS011;53446;50.076;8.198;2023-04-29T09:04:55;8.85;;;4.15;;
66587;SDS011;53446;50.076;8.198;2023-04-29T09:07:00;8.75;;;4.45;;
66587;SDS011;53446;50.076;8.198;2023-04-29T09:09:00;8.02;;;3.97;;
66587;SDS011;53446;50.076;8.198;2023-04-29T09:11:02;7.80;;;4.00;;
66587;SDS011;53446;50.076;8.198;2023-04-29T09:13:04;8.18;;;4.20;;
66587;SDS011;53446;50.076;8.198;2023-04-29T09:15:04;8.33;;;3.60;;
66587;SDS011;53446;50.076;8.198;2023-04-29T09:17:05;7.50;;;3.90;;
66587;SDS011;53446;50.076;8.198;2023-04-29T09:19:05;6.60;;;3.38;;
66587;SDS011;53446;50.076;8.198;2023-04-29T09:21:11;7.25;;;3.50;;
66587;SDS011;53446;50.076;8.198;2023-04-29T09:23:12;6.28;;;2.90;;
66587;SDS011;53446;50.076;8.198;2023-04-29T09:25:12;5.90;;;2.90;;
66587;SDS011;53446;50.076;8.198;2023-04-29T09:27:24;6.47;;;3.07;;
66587;SDS011;53446;50.076;8.198;2023-04-29T09:29:26;7.00;;;3.00;;
66587;SDS011;53446;50.076;8.198;2023-04-29T09:31:26;6.23;;;2.77;;
66587;SDS011;53446;50.076;8.198;2023-04-29T09:33:27;6.53;;;3.00;;
66587;SDS011;53446;50.076;8.198;2023-04-29T09:35:30;6.97;;;3.22;;
66587;SDS011;53446;50.076;8.198;2023-04-29T09:37:30;8.07;;;3.10;;
66587;SDS011;53446;50.076;8.198;2023-04-29T09:39:37;6.80;;;3.20;;
66587;SDS011;53446;50.076;8.198;2023-04-29T09:41:38;5.95;;;2.90;;
66587;SDS011;53446;50.076;8.198;2023-04-29T09:44:06;7.03;;;3.10;;
66587;SDS011;53446;50.076;8.198;2023-04-29T09:46:11;5.43;;;2.67;;
66587;SDS011;53446;50.076;8.198;2023-04-29T09:48:11;6.47;;;2.95;;
66587;SDS011;53446;50.076;8.198;2023-04-29T09:50:12;5.90;;;2.90;;
66587;SDS011;53446;50.076;8.198;2023-04-29T09:52:14;6.45;;;2.88;;
66587;SDS011;53446;50.076;8.198;2023-04-29T09:54:20;7.00;;;2.78;;
66587;SDS011;53446;50.076;8.198;2023-04-29T09:56:21;7.03;;;3.10;;
66587;SDS011;53446;50.076;8.198;2023-04-29T09:58:40;6.20;;;2.63;;
66587;SDS011;53446;50.076;8.198;2023-04-29T10:00:41;6.43;;;2.80;;
66587;SDS011;53446;50.076;8.198;2023-04-29T10:02:41;7.93;;;4.07;;
66587;SDS011;53446;50.076;8.198;2023-04-29T10:04:46;5.32;;;2.53;;
66587;SDS011;53446;50.076;8.198;2023-04-29T10:06:54;5.25;;;2.70;;
66587;SDS011;53446;50.076;8.198;2023-04-29T10:08:55;5.55;;;2.58;;
66587;SDS011;53446;50.076;8.198;2023-04-29T10:11:02;6.00;;;2.67;;
66587;SDS011;53446;50.076;8.198;2023-04-29T10:13:03;5.28;;;2.40;;
66587;SDS011;53446;50.076;8.198;2023-04-29T10:15:19;5.57;;;2.75;;
66587;SDS011;53446;50.076;8.198;2023-04-29T10:19:54;5.30;;;2.63;;
66587;SDS011;53446;50.076;8.198;2023-04-29T10:22:08;5.97;;;3.07;;
66587;SDS011;53446;50.076;8.198;2023-04-29T10:24:11;6.55;;;3.03;;
66587;SDS011;53446;50.076;8.198;2023-04-29T10:26:13;6.13;;;3.20;;
66587;SDS011;53446;50.076;8.198;2023-04-29T10:28:14;6.07;;;2.88;;
66587;SDS011;53446;50.076;8.198;2023-04-29T10:30:16;7.10;;;3.15;;
66587;SDS011;53446;50.076;8.198;2023-04-29T10:32:17;6.63;;;2.83;;
66587;SDS011;53446;50.076;8.198;2023-04-29T10:34:18;6.30;;;3.03;;
66587;SDS011;53446;50.076;8.198;2023-04-29T10:36:18;5.30;;;2.50;;
66587;SDS011;53446;50.076;8.198;2023-04-29T10:38:23;5.57;;;2.80;;
66587;SDS011;53446;50.076;8.198;2023-04-29T10:40:34;5.68;;;2.90;;
66587;SDS011;53446;50.076;8.198;2023-04-29T10:45:15;6.15;;;2.95;;
66587;SDS011;53446;50.076;8.198;2023-04-29T10:47:21;7.30;;;2.80;;
66587;SDS011;53446;50.076;8.198;2023-04-29T10:49:21;8.43;;;4.25;;
66587;SDS011;53446;50.076;8.198;2023-04-29T10:51:28;5.63;;;2.70;;
66587;SDS011;53446;50.076;8.198;2023-04-29T10:53:32;5.30;;;2.50;;
66587;SDS011;53446;50.076;8.198;2023-04-29T10:55:36;5.13;;;2.42;;
66587;SDS011;53446;50.076;8.198;2023-04-29T10:57:37;6.25;;;2.78;;
66587;SDS011;53446;50.076;8.198;2023-04-29T11:06:02;7.60;;;4.10;;
66587;SDS011;53446;50.076;8.198;2023-04-29T11:08:08;5.38;;;2.60;;
66587;SDS011;53446;50.076;8.198;2023-04-29T11:10:12;5.32;;;2.42;;
66587;SDS011;53446;50.076;8.198;2023-04-29T11:12:12;4.90;;;2.50;;
66587;SDS011;53446;50.076;8.198;2023-04-29T11:14:23;5.70;;;2.50;;
66587;SDS011;53446;50.076;8.198;2023-04-29T11:16:25;7.35;;;3.40;;
66587;SDS011;53446;50.076;8.198;2023-04-29T11:18:28;5.33;;;2.60;;
66587;SDS011;53446;50.076;8.198;2023-04-29T11:20:29;4.60;;;2.30;;
66587;SDS011;53446;50.076;8.198;2023-04-29T11:22:29;4.90;;;2.40;;
66587;SDS011;53446;50.076;8.198;2023-04-29T11:24:33;5.65;;;2.63;;
66587;SDS011;53446;50.076;8.198;2023-04-29T11:26:35;7.30;;;3.92;;
66587;SDS011;53446;50.076;8.198;2023-04-29T11:28:35;6.85;;;3.28;;
66587;SDS011;53446;50.076;8.198;2023-04-29T11:30:36;5.40;;;2.60;;
66587;SDS011;53446;50.076;8.198;2023-04-29T11:32:37;4.70;;;2.60;;
66587;SDS011;53446;50.076;8.198;2023-04-29T11:34:39;4.40;;;2.47;;
66587;SDS011;53446;50.076;8.198;2023-04-29T11:36:39;4.20;;;2.10;;
66587;SDS011;53446;50.076;8.198;2023-04-29T11:38:40;4.35;;;2.03;;
66587;SDS011;53446;50.076;8.198;2023-04-29T11:40:41;4.17;;;2.17;;
66587;SDS011;53446;50.076;8.198;2023-04-29T11:42:48;4.85;;;2.50;;
66587;SDS011;53446;50.076;8.198;2023-04-29T11:44:52;4.70;;;2.60;;
66587;SDS011;53446;50.076;8.198;2023-04-29T11:47:02;5.10;;;2.85;;
66587;SDS011;53446;50.076;8.198;2023-04-29T11:49:03;6.95;;;2.50;;
66587;SDS011;53446;50.076;8.198;2023-04-29T11:51:03;4.53;;;2.40;;
66587;SDS011;53446;50.076;8.198;2023-04-29T11:53:04;4.50;;;2.23;;
66587;SDS011;53446;50.076;8.198;2023-04-29T11:55:05;5.10;;;2.47;;
66587;SDS011;53446;50.076;8.198;2023-04-29T11:57:09;4.72;;;2.45;;
66587;SDS011;53446;50.076;8.198;2023-04-29T11:59:09;7.75;;;4.15;;
66587;SDS011;53446;50.076;8.198;2023-04-29T12:01:10;6.35;;;2.67;;
66587;SDS011;53446;50.076;8.198;2023-04-29T12:03:17;5.20;;;2.70;;
66587;SDS011;53446;50.076;8.198;2023-04-29T12:05:18;4.88;;;2.97;;
66587;SDS011;53446;50.076;8.198;2023-04-29T12:07:18;5.30;;;2.93;;
66587;SDS011;53446;50.076;8.198;2023-04-29T12:09:18;4.97;;;2.60;;
66587;SDS011;53446;50.076;8.198;2023-04-29T12:11:19;5.53;;;3.03;;
66587;SDS011;53446;50.076;8.198;2023-04-29T12:13:19;5.73;;;2.40;;
66587;SDS011;53446;50.076;8.198;2023-04-29T12:15:29;10.70;;;6.03;;
66587;SDS011;53446;50.076;8.198;2023-04-29T12:17:29;5.07;;;2.80;;
66587;SDS011;53446;50.076;8.198;2023-04-29T12:19:30;5.33;;;2.80;;
66587;SDS011;53446;50.076;8.198;2023-04-29T12:21:31;4.63;;;2.80;;
66587;SDS011;53446;50.076;8.198;2023-04-29T12:23:32;5.40;;;2.60;;
66587;SDS011;53446;50.076;8.198;2023-04-29T12:25:34;4.82;;;2.80;;
66587;SDS011;53446;50.076;8.198;2023-04-29T12:27:35;5.00;;;2.77;;
66587;SDS011;53446;50.076;8.198;2023-04-29T12:29:36;6.03;;;2.80;;